Latest Weather Observations for Nhill Aerodrome

IDV60801

Issued at 12:32 pm EDT Sunday 18 November 2018 (issued every 10 minutes, with the page automatically refreshed every 10 minutes)

About weather observations | Map of weather stations | Latest weather observations for VIC | Other Formats
Station Details ID: 078015 Name: NHILL AERODROME Lat: -36.31 Lon: 141.65 Height: 138.9 m
Data from the previous 72 hours. | See also: Recent months at Nhill Aerodrome
Date/Time
EDT
Temp
°C
App
Temp
°C
Dew
Point
°C
Rel
Hum
%
Delta-T
°C
Wind Press
QNH
hPa
Press
MSL
hPa
Rain since
9am
mm
Dir  Spd
km/h
Gust
km/h
Spd
kts
Gust
kts
18/12:30pm 25.6 22.3 4.7 26 10.6 NNE 11 17 6 9 1018.0 1017.7 0.0
18/12:00pm 25.2 21.2 4.9 27 10.3 NE 15 22 8 12 1018.5 1018.2 0.0
18/11:30am 24.3 20.9 6.1 31 9.4 NNE 13 20 7 11 1019.0 1018.7 0.0
18/11:00am 23.3 20.1 7.0 35 8.5 NE 13 24 7 13 1019.4 1019.1 0.0
18/10:30am 21.8 18.2 6.9 38 7.7 NNE 15 24 8 13 1019.6 1019.3 0.0
18/10:00am 20.8 16.0 7.4 42 6.9 NE 22 32 12 17 1019.7 1019.4 0.0
18/09:30am 18.7 12.4 7.2 47 5.8 ENE 30 39 16 21 1019.8 1019.5 0.0
18/09:00am 17.0 10.5 6.5 50 5.2 ENE 30 39 16 21 1019.9 1019.6 0.0
18/08:30am 16.0 11.0 6.4 53 4.7 E 22 30 12 16 1020.0 1019.7 0.0
18/08:00am 13.9 9.4 6.3 60 3.7 ESE 19 30 10 16 1020.0 1019.7 0.0
18/07:30am 10.9 7.6 6.5 74 2.1 SE 13 20 7 11 1020.1 1019.8 0.0
18/07:00am 7.5 4.7 5.3 86 1.0 SSE 9 11 5 6 1020.0 1019.7 0.0
18/06:30am 5.8 2.7 3.8 87 0.9 SSE 9 11 5 6 1019.8 1019.5 0.0
18/06:00am 6.2 3.6 4.2 87 0.9 SE 7 9 4 5 1019.8 1019.5 0.0
18/05:30am 6.1 2.7 3.9 86 0.9 SSE 11 13 6 7 1019.7 1019.4 0.0
18/05:00am 6.1 2.9 3.3 82 1.2 SSE 9 11 5 6 1019.6 1019.3 0.0
18/04:30am 7.1 4.5 4.2 82 1.3 SE 7 9 4 5 1019.7 1019.4 0.0
18/04:00am 7.4 4.4 4.2 80 1.4 SE 9 11 5 6 1019.8 1019.5 0.0
18/03:30am 7.7 4.7 4.3 79 1.5 SSE 9 11 5 6 1020.1 1019.8 0.0
18/03:00am 8.9 6.3 4.1 72 2.1 SSE 7 11 4 6 1020.2 1019.9 0.0
18/02:30am 9.5 5.7 3.7 67 2.5 SSE 13 15 7 8 1020.3 1020.0 0.0
18/02:00am 11.3 6.2 3.1 57 3.6 SE 19 24 10 13 1020.5 1020.2 0.0
18/01:30am 11.6 7.6 4.8 63 3.1 SE 15 20 8 11 1020.8 1020.4 0.0
18/01:00am 12.5 8.2 5.2 61 3.4 SE 17 22 9 12 1021.1 1020.7 0.0
18/12:30am 13.0 8.4 6.4 64 3.2 SE 20 26 11 14 1021.2 1020.8 0.0
18/12:00am 13.9 8.6 7.0 63 3.4 SE 24 30 13 16 1021.3 1020.9 0.0
 
Date/Time
EDT
Temp
°C
App
Temp
°C
Dew
Point
°C
Rel
Hum
%
Delta-T
°C
Wind Press
QNH
hPa
Press
MSL
hPa
Rain since
9am
mm
Dir  Spd
km/h
Gust
km/h
Spd
kts
Gust
kts
17/11:30pm 14.7 9.4 7.0 60 3.8 SE 24 32 13 17 1021.4 1021.0 0.0
17/11:00pm 15.2 10.8 7.3 59 3.9 SSE 20 26 11 14 1021.7 1021.4 0.0
17/10:30pm 16.4 11.5 7.1 54 4.6 SSE 22 32 12 17 1021.7 1021.4 0.0
17/10:00pm 17.2 12.7 7.0 51 5.1 SSE 20 26 11 14 1021.5 1021.1 0.0
17/09:30pm 18.1 13.5 6.6 47 5.8 SSE 20 24 11 13 1021.2 1020.8 0.0
17/09:00pm 20.1 14.1 1.0 28 8.6 SE 22 28 12 15 1020.8 1020.4 0.0
17/08:30pm 21.1 14.8 1.4 27 9.1 ESE 24 32 13 17 1020.3 1020.0 0.0
17/08:00pm 22.7 16.4 1.7 25 9.8 SE 24 33 13 18 1020.0 1019.7 0.0
17/07:30pm 23.8 16.8 -0.5 20 11.0 SSE 26 35 14 19 1019.6 1019.3 0.0
17/07:00pm 25.0 18.7 -0.9 18 11.8 SE 22 32 12 17 1019.4 1019.1 0.0
17/06:30pm 25.4 18.6 -2.2 16 12.3 SSE 24 37 13 20 1019.3 1019.0 0.0
17/06:00pm 25.8 18.9 -2.8 15 12.6 SE 24 33 13 18 1019.4 1019.1 0.0
17/05:30pm 26.0 19.5 -2.6 15 12.7 SSE 22 33 12 18 1019.6 1019.3 0.0
17/05:00pm 25.5 19.9 -3.0 15 12.5 SSE 17 30 9 16 1019.6 1019.3 0.0
17/04:30pm 25.9 19.9 -2.7 15 12.7 SSE 19 28 10 15 1019.7 1019.4 0.0
17/04:00pm 25.8 19.8 -2.8 15 12.6 SE 19 32 10 17 1020.1 1019.8 0.0
17/03:30pm 25.7 20.6 -2.0 16 12.4 SE 15 30 8 16 1020.5 1020.2 0.0
17/03:00pm 26.1 20.7 -1.7 16 12.5 SSE 17 30 9 16 1021.0 1020.6 0.0
17/02:30pm 24.6 20.1 -0.5 19 11.5 SSE 13 24 7 13 1021.5 1021.1 0.0
17/02:00pm 23.4 19.3 -0.1 21 10.7 S 11 22 6 12 1021.8 1021.5 0.0
17/01:30pm 23.1 18.9 -1.1 20 10.8 SW 11 24 6 13 1022.3 1022.0 0.0
17/01:00pm 21.9 17.4 -0.1 23 9.9 SE 13 26 7 14 1022.7 1022.4 0.0
17/12:30pm 21.0 16.6 0.2 25 9.4 ESE 13 24 7 13 1023.1 1022.8 0.0
17/12:00pm 19.5 14.3 0.0 27 8.6 SSE 17 28 9 15 1023.4 1023.1 0.0
17/11:30am 19.4 14.2 0.4 28 8.5 ESE 17 30 9 16 1023.5 1023.2 0.0
17/11:00am 18.3 12.6 0.4 30 7.9 SE 20 30 11 16 1023.6 1023.3 0.0
17/10:30am 17.4 11.5 1.4 34 7.2 SSE 22 30 12 16 1023.6 1023.3 0.0
17/10:00am 16.0 11.0 1.3 37 6.5 SE 17 24 9 13 1023.5 1023.2 0.0
17/09:30am 14.6 9.9 3.4 47 5.1 ESE 17 26 9 14 1023.6 1023.3 0.0
17/09:00am 13.8 9.2 3.6 50 4.6 ESE 17 22 9 12 1023.4 1023.1 0.0
17/08:30am 12.0 8.3 4.5 60 3.4 SE 13 19 7 10 1023.4 1023.1 0.0
17/08:00am 9.5 5.8 4.3 70 2.3 SSE 13 17 7 9 1023.3 1023.0 0.0
17/07:30am 7.6 3.9 4.7 82 1.3 SSE 13 17 7 9 1023.0 1022.7 0.0
17/07:00am 5.9 3.2 3.9 87 0.8 SSE 7 11 4 6 1022.8 1022.5 0.0
17/06:30am 4.3 0.6 2.5 88 0.7 SSE 11 11 6 6 1022.5 1022.2 0.0
17/06:00am 4.6 1.3 2.6 87 0.8 SSE 9 11 5 6 1022.2 1021.9 0.0
17/05:30am 5.1 1.5 3.0 86 0.9 SSE 11 13 6 7 1021.9 1021.6 0.0
17/05:00am 5.4 1.4 3.1 85 1.0 SSE 13 13 7 7 1021.7 1021.4 0.0
17/04:30am 5.4 1.7 2.6 82 1.2 SSE 11 13 6 7 1021.5 1021.1 0.0
17/04:00am 6.2 3.0 3.0 80 1.3 SSE 9 11 5 6 1021.5 1021.1 0.0
17/03:30am 7.0 4.2 3.4 78 1.5 S 7 13 4 7 1021.5 1021.1 0.0
17/03:00am 7.6 3.8 3.8 77 1.6 SSE 13 17 7 9 1021.4 1021.0 0.0
17/02:30am 8.4 4.6 3.8 73 2.0 SSE 13 15 7 8 1021.6 1021.3 0.0
17/02:00am 9.2 5.4 4.0 70 2.3 SSE 13 17 7 9 1021.7 1021.4 0.0
17/01:30am 10.3 5.9 4.7 68 2.5 SSE 17 22 9 12 1021.8 1021.5 0.0
17/01:00am 11.3 5.6 4.7 64 3.0 SSE 24 32 13 17 1022.0 1021.7 0.0
17/12:30am 11.8 6.5 4.8 62 3.2 SSE 22 30 12 16 1022.1 1021.8 0.0
17/12:00am 12.6 6.5 4.6 58 3.7 SSE 26 35 14 19 1022.1 1021.8 0.0
 
Date/Time
EDT
Temp
°C
App
Temp
°C
Dew
Point
°C
Rel
Hum
%
Delta-T
°C
Wind Press
QNH
hPa
Press
MSL
hPa
Rain since
9am
mm
Dir  Spd
km/h
Gust
km/h
Spd
kts
Gust
kts
16/11:30pm 13.4 7.6 4.6 55 4.1 SSE 24 32 13 17 1022.0 1021.7 0.0
16/11:00pm 14.1 8.4 4.7 53 4.4 S 24 32 13 17 1021.9 1021.6 0.0
16/10:30pm 14.9 9.2 5.1 52 4.6 S 24 32 13 17 1021.7 1021.4 0.0
16/10:00pm 16.0 9.6 5.3 49 5.1 S 28 37 15 20 1021.3 1020.9 0.0
16/09:30pm 17.4 11.7 4.7 43 6.1 S 24 33 13 18 1020.5 1020.2 0.0
16/09:00pm 18.3 13.4 4.1 39 6.7 S 19 32 10 17 1019.9 1019.6 0.0
16/08:30pm 19.1 13.5 1.1 30 8.1 SSW 20 26 11 14 1019.5 1019.2 0.0
16/08:00pm 20.6 15.1 2.0 29 8.6 SSW 20 30 11 16 1019.2 1018.9 0.0
16/07:30pm 21.7 15.8 1.9 27 9.3 SSW 22 28 12 15 1018.8 1018.5 0.0
16/07:00pm 22.7 17.0 0.5 23 10.2 SW 20 28 11 15 1018.6 1018.3 0.0
16/06:30pm 23.2 17.2 0.9 23 10.4 SSW 22 32 12 17 1018.4 1018.1 0.0
16/06:00pm 24.0 17.6 1.0 22 10.7 SSW 24 32 13 17 1018.2 1017.9 0.0
16/05:30pm 24.1 18.6 0.4 21 11.0 SW 19 28 10 15 1018.2 1017.9 0.0
16/05:00pm 24.6 19.0 1.5 22 10.9 SW 20 35 11 19 1018.1 1017.8 0.0
16/04:30pm 24.9 19.3 1.1 21 11.2 SW 20 39 11 21 1018.1 1017.8 0.0
16/04:00pm 24.8 19.0 -0.4 19 11.5 SW 20 35 11 19 1018.3 1018.0 0.0
16/03:30pm 24.7 18.7 0.9 21 11.2 WSW 22 43 12 23 1018.6 1018.3 0.0
16/03:00pm 23.9 18.4 2.1 24 10.4 SW 20 37 11 20 1018.9 1018.6 0.0
16/02:30pm 23.6 18.2 1.3 23 10.5 W 19 32 10 17 1019.2 1018.9 0.0
16/02:00pm 24.4 19.4 1.3 22 10.9 WSW 17 28 9 15 1019.7 1019.4 0.0
16/01:30pm 22.9 17.6 1.9 25 9.9 W 19 30 10 16 1019.9 1019.6 0.0
16/01:00pm 23.3 18.4 2.2 25 10.0 WSW 17 32 9 17 1020.2 1019.9 0.0
16/12:30pm 22.2 17.4 2.8 28 9.3 WSW 17 32 9 17 1020.5 1020.2 0.0
16/12:00pm 20.9 16.0 2.2 29 8.7 W 17 35 9 19 1021.0 1020.6 0.0
16/11:30am 20.4 16.8 3.2 32 8.2 WSW 11 20 6 11 1021.3 1020.9 0.0
16/11:00am 19.5 16.9 3.2 34 7.7 SE 6 11 3 6 1021.2 1020.8 0.0
16/10:30am 19.0 16.5 3.6 36 7.3 W 6 11 3 6 1021.4 1021.0 0.0
16/10:00am 17.6 14.7 2.8 37 6.8 ENE 7 17 4 9 1021.7 1021.4 0.0
16/09:30am 16.6 12.6 3.0 40 6.3 ENE 13 17 7 9 1021.7 1021.4 0.0
16/09:00am 15.0 10.9 2.5 43 5.6 ENE 13 19 7 10 1021.8 1021.5 0.0
16/08:30am 13.7 9.7 2.6 47 4.9 E 13 17 7 9 1021.7 1021.4 0.0
16/08:00am 12.0 7.5 4.0 58 3.6 E 17 22 9 12 1021.6 1021.3 0.0
16/07:30am 10.3 6.6 4.2 66 2.7 E 13 17 7 9 1021.3 1020.9 0.0
16/07:00am 8.2 5.6 4.2 76 1.7 E 7 9 4 5 1021.3 1020.9 0.0
16/06:30am 7.3 4.6 3.9 79 1.5 E 7 11 4 6 1021.1 1020.7 0.0
16/06:00am 6.6 3.5 3.4 80 1.4 ESE 9 11 5 6 1021.0 1020.6 0.0
16/05:30am 7.3 3.8 3.7 78 1.5 E 11 15 6 8 1020.5 1020.2 0.0
16/05:00am 7.5 4.1 3.9 78 1.6 E 11 15 6 8 1020.4 1020.1 0.0
16/04:30am 7.7 4.2 3.7 76 1.7 ESE 11 13 6 7 1020.5 1020.2 0.0
16/04:00am 8.1 4.7 3.9 75 1.8 ESE 11 15 6 8 1020.7 1020.3 0.0
16/03:30am 8.8 5.7 3.8 71 2.2 ESE 9 13 5 7 1020.9 1020.5 0.0
16/03:00am 9.8 5.3 4.4 69 2.4 SE 17 22 9 12 1021.1 1020.7 0.0
16/02:30am 10.1 5.7 4.5 68 2.5 ESE 17 22 9 12 1021.3 1020.9 0.0
16/02:00am 10.8 6.0 4.7 66 2.8 ESE 19 24 10 13 1021.6 1021.3 0.0
16/01:30am 11.5 6.7 4.7 63 3.1 ESE 19 26 10 14 1022.0 1021.7 0.0
16/01:00am 10.8 6.7 4.3 64 2.9 SE 15 19 8 10 1022.3 1022.0 0.0
16/12:30am 12.2 7.4 4.4 59 3.6 SE 19 24 10 13 1022.3 1022.0 0.0
16/12:00am 12.3 7.4 4.0 57 3.7 SSE 19 26 10 14 1022.6 1022.3 0.0
 
Date/Time
EDT
Temp
°C
App
Temp
°C
Dew
Point
°C
Rel
Hum
%
Delta-T
°C
Wind Press
QNH
hPa
Press
MSL
hPa
Rain since
9am
mm
Dir  Spd
km/h
Gust
km/h
Spd
kts
Gust
kts
15/11:30pm 12.8 7.8 3.7 54 4.1 SE 19 24 10 13 1022.7 1022.4 0.0
15/11:00pm 11.7 7.8 3.2 56 3.7 SSE 13 15 7 8 1022.9 1022.6 0.0
15/10:30pm 12.7 8.5 3.6 54 4.1 SSE 15 17 8 9 1022.8 1022.5 0.0
15/10:00pm 13.0 9.0 3.1 51 4.4 S 13 15 7 8 1022.6 1022.3 0.0
15/09:30pm 13.8 9.8 3.0 48 4.9 S 13 15 7 8 1022.5 1022.2 0.0
15/09:00pm 15.1 11.1 2.6 43 5.6 SSE 13 15 7 8 1022.2 1021.9 0.0
15/08:30pm 17.7 13.3 2.5 36 7.0 SE 15 19 8 10 1022.1 1021.8 0.0
15/08:00pm 19.5 14.4 2.8 33 7.8 SSE 19 24 10 13 1022.0 1021.7 0.0
15/07:30pm 20.6 15.9 2.9 31 8.4 SSE 17 22 9 12 1021.8 1021.5 0.0
15/07:00pm 21.3 16.6 3.0 30 8.7 SSE 17 22 9 12 1021.4 1021.0 0.0
15/06:30pm 21.7 16.6 2.9 29 9.0 SSE 19 28 10 15 1021.2 1020.8 0.0
15/06:00pm 22.3 17.6 2.9 28 9.3 S 17 26 9 14 1021.3 1020.9 0.0
15/05:30pm 22.3 17.1 2.4 27 9.4 SSE 19 26 10 14 1021.4 1021.0 0.0
15/05:00pm 22.0 16.6 2.7 28 9.2 S 20 30 11 16 1021.3 1020.9 0.0
15/04:30pm 22.1 16.9 2.2 27 9.4 SSW 19 30 10 16 1021.3 1020.9 0.0
15/04:00pm 22.1 17.2 2.2 27 9.4 S 17 32 9 17 1021.7 1021.4 0.0
15/03:30pm 20.9 15.7 2.2 29 8.8 SSW 19 32 10 17 1021.9 1021.6 0.0
15/03:00pm 21.1 15.9 2.4 29 8.8 S 19 28 10 15 1022.3 1022.0 0.0
15/02:30pm 20.5 15.5 1.4 28 8.8 SSE 17 32 9 17 1022.8 1022.5 0.0
15/02:00pm 20.1 15.2 2.0 30 8.3 SE 17 30 9 16 1023.0 1022.7 0.0
15/01:30pm 20.2 14.9 2.1 30 8.4 SE 19 28 10 15 1023.4 1023.1 0.0
15/01:00pm 19.8 14.6 2.6 32 8.0 S 19 32 10 17 1023.7 1023.4 0.0

Other Formats:

Comma delimited format used in spreadsheet applications
http://www.bom.gov.au/fwo/IDV60801/IDV60801.94827.axf

JavaScript Object Notation format (JSON) in row-major order
http://www.bom.gov.au/fwo/IDV60801/IDV60801.94827.json